Time;durP1;ratioP1;P1;durP2;ratioP2;P2;SDS_P1;SDS_P2;PMS_P1;PMS_P2;Temp;Humidity;BMP_temperature;BMP_pressure;BME280_temperature;BME280_humidity;BME280_pressure;Samples;Min_cycle;Max_cycle;Signal;HPM_P1;HPM_P2
2021/12/28 00:01:51;;;;;;;;;;;6.50;55.50;;;;;;5091797;28;19981;-68
2021/12/28 00:04:16;;;;;;;;;;;6.50;55.50;;;;;;5111776;28;19947;-68
2021/12/28 00:06:42;;;;;;;;;;;6.50;55.50;;;;;;5112193;28;19911;-68
2021/12/28 00:09:09;;;;;;;;;;;6.50;55.50;;;;;;5112456;28;19931;-68
2021/12/28 00:11:34;;;;;;;;;;;6.60;55.60;;;;;;5112066;28;19908;-68
2021/12/28 00:14:01;;;;;;;;;;;6.50;55.50;;;;;;5111959;28;19919;-68
2021/12/28 00:18:57;;;;;;;;;;;6.50;55.40;;;;;;5092565;28;20025;-68
2021/12/28 00:21:23;;;;;;;;;;;6.50;55.40;;;;;;5091829;28;19987;-68
2021/12/28 00:23:49;;;;;;;;;;;6.50;55.40;;;;;;5092297;28;19915;-68
2021/12/28 00:26:15;;;;;;;;;;;6.50;55.40;;;;;;5091938;28;19905;-68
2021/12/28 00:28:42;;;;;;;;;;;6.50;55.40;;;;;;5108739;28;19922;-68
2021/12/28 00:31:08;;;;;;;;;;;6.50;55.40;;;;;;5112265;28;19911;-68
2021/12/28 00:33:33;;;;;;;;;;;6.50;55.40;;;;;;5112121;28;20300;-68
2021/12/28 00:35:59;;;;;;;;;;;6.50;55.40;;;;;;5112006;28;19943;-68
2021/12/28 00:38:26;;;;;;;;;;;6.50;55.30;;;;;;5114643;28;19908;-68
2021/12/28 00:40:53;;;;;;;;;;;6.50;55.30;;;;;;5114684;28;19907;-68
2021/12/28 00:43:18;;;;;;;;;;;6.40;55.20;;;;;;5111995;27;19912;-68
2021/12/28 00:45:45;;;;;;;;;;;6.40;55.30;;;;;;5136578;27;20028;-68
2021/12/28 00:48:10;;;;;;;;;;;6.40;55.30;;;;;;5128836;27;19907;-68
2021/12/28 00:50:36;;;;;;;;;;;6.40;55.30;;;;;;5115893;28;19998;-68
2021/12/28 00:53:02;;;;;;;;;;;6.40;55.30;;;;;;5098561;28;19912;-68
2021/12/28 00:55:27;;;;;;;;;;;6.40;55.30;;;;;;5095411;28;19908;-68
2021/12/28 00:57:53;;;;;;;;;;;6.40;55.30;;;;;;5095348;28;19957;-68
2021/12/28 01:00:21;;;;;;;;;;;6.40;55.40;;;;;;5095333;28;19908;-68
2021/12/28 01:02:47;;;;;;;;;;;6.40;55.30;;;;;;5096323;28;20003;-68
2021/12/28 01:05:13;;;;;;;;;;;6.40;55.30;;;;;;5093856;28;19911;-68
2021/12/28 01:07:38;;;;;;;;;;;6.40;55.40;;;;;;5095135;28;20361;-68
2021/12/28 01:10:06;;;;;;;;;;;6.40;55.30;;;;;;5095085;28;19908;-68
2021/12/28 01:12:31;;;;;;;;;;;6.30;55.30;;;;;;5108310;28;19981;-68
2021/12/28 01:14:57;;;;;;;;;;;6.40;55.30;;;;;;5115375;28;20699;-68
2021/12/28 01:17:23;;;;;;;;;;;6.40;55.30;;;;;;5115192;28;19915;-68
2021/12/28 01:19:49;;;;;;;;;;;6.40;55.30;;;;;;5115176;28;19915;-68
2021/12/28 01:22:14;;;;;;;;;;;6.40;55.40;;;;;;5115157;28;19908;-68
2021/12/28 01:24:40;;;;;;;;;;;6.40;55.40;;;;;;5115215;28;20387;-68
2021/12/28 01:27:06;;;;;;;;;;;6.40;55.40;;;;;;5103504;28;19912;-68
2021/12/28 01:29:32;;;;;;;;;;;6.40;55.30;;;;;;5094744;28;19913;-68
2021/12/28 01:31:58;;;;;;;;;;;6.40;55.30;;;;;;5094719;28;19908;-68
2021/12/28 01:34:24;;;;;;;;;;;6.40;55.30;;;;;;5103384;28;19920;-68
2021/12/28 01:36:50;;;;;;;;;;;6.40;55.30;;;;;;5105470;28;19990;-68
2021/12/28 01:39:15;;;;;;;;;;;6.40;55.30;;;;;;5094569;28;19912;-68
2021/12/28 01:41:41;;;;;;;;;;;6.40;55.40;;;;;;5094508;28;19915;-68
2021/12/28 01:44:08;;;;;;;;;;;6.40;55.40;;;;;;5094497;28;19916;-68
2021/12/28 01:46:34;;;;;;;;;;;6.40;55.40;;;;;;5094455;28;19912;-68
2021/12/28 01:49:00;;;;;;;;;;;6.40;55.40;;;;;;5093317;28;19912;-68
2021/12/28 01:51:27;;;;;;;;;;;6.40;55.40;;;;;;5096679;28;19960;-68
2021/12/28 01:53:54;;;;;;;;;;;6.40;55.40;;;;;;5094186;28;20027;-69
2021/12/28 01:56:21;;;;;;;;;;;6.40;55.40;;;;;;5094204;28;19908;-68
2021/12/28 01:58:47;;;;;;;;;;;6.40;55.40;;;;;;5094171;28;19912;-68
2021/12/28 02:01:13;;;;;;;;;;;6.40;55.50;;;;;;5094061;28;19923;-68
2021/12/28 02:03:40;;;;;;;;;;;6.40;55.40;;;;;;5094012;28;19908;-68
2021/12/28 02:06:06;;;;;;;;;;;6.40;55.40;;;;;;5094041;28;19944;-68
2021/12/28 02:08:32;;;;;;;;;;;6.40;55.40;;;;;;5094675;28;19913;-69
2021/12/28 02:10:57;;;;;;;;;;;6.50;55.40;;;;;;5093779;28;19962;-68
2021/12/28 02:13:24;;;;;;;;;;;6.50;55.40;;;;;;5093676;28;19913;-68
2021/12/28 02:15:50;;;;;;;;;;;6.50;55.40;;;;;;5093472;28;19946;-68
2021/12/28 02:18:17;;;;;;;;;;;6.50;55.40;;;;;;5093603;28;20284;-67
2021/12/28 02:20:43;;;;;;;;;;;6.50;55.40;;;;;;5093512;28;20349;-68
2021/12/28 02:23:10;;;;;;;;;;;6.50;55.40;;;;;;5104312;28;20002;-68
2021/12/28 02:25:35;;;;;;;;;;;6.50;55.40;;;;;;5092134;28;19912;-68
2021/12/28 02:28:01;;;;;;;;;;;6.60;55.50;;;;;;5093409;28;19909;-69
2021/12/28 02:30:27;;;;;;;;;;;6.60;55.60;;;;;;5093441;28;19918;-68
2021/12/28 02:32:53;;;;;;;;;;;6.60;55.50;;;;;;5110236;28;20023;-68
2021/12/28 02:35:22;;;;;;;;;;;6.60;55.40;;;;;;5113718;28;19967;-68
2021/12/28 02:37:48;;;;;;;;;;;6.60;55.40;;;;;;5113758;27;20346;-68
2021/12/28 02:40:15;;;;;;;;;;;6.60;55.40;;;;;;5113630;28;19952;-68
2021/12/28 02:42:41;;;;;;;;;;;6.60;55.40;;;;;;5113340;28;19908;-67
2021/12/28 02:45:12;;;;;;;;;;;6.60;55.40;;;;;;5112206;28;19911;-68
2021/12/28 02:47:39;;;;;;;;;;;6.60;55.40;;;;;;5111846;28;19992;-68
2021/12/28 02:50:06;;;;;;;;;;;6.60;55.40;;;;;;5113574;27;19912;-68
2021/12/28 02:52:34;;;;;;;;;;;6.60;56.00;;;;;;5113364;28;20010;-68
2021/12/28 02:55:00;;;;;;;;;;;6.60;55.40;;;;;;5113330;28;19912;-68
2021/12/28 02:57:25;;;;;;;;;;;6.60;55.30;;;;;;5113414;28;20022;-68
2021/12/28 02:59:51;;;;;;;;;;;6.60;55.30;;;;;;5113050;28;19999;-68
2021/12/28 03:02:17;;;;;;;;;;;6.60;55.30;;;;;;5096490;28;19919;-68
2021/12/28 03:04:43;;;;;;;;;;;6.60;55.30;;;;;;5092823;28;20003;-68
2021/12/28 03:07:09;;;;;;;;;;;6.60;55.30;;;;;;5092833;28;19962;-66
2021/12/28 03:09:35;;;;;;;;;;;6.60;55.30;;;;;;5092756;28;19908;-68
2021/12/28 03:12:01;;;;;;;;;;;6.60;55.30;;;;;;5106435;28;20441;-68
2021/12/28 03:14:26;;;;;;;;;;;6.60;55.40;;;;;;5112882;28;19915;-68
2021/12/28 03:16:52;;;;;;;;;;;6.70;55.50;;;;;;5112760;28;19980;-68
2021/12/28 03:19:18;;;;;;;;;;;6.70;55.40;;;;;;5112962;28;19912;-68
2021/12/28 03:21:43;;;;;;;;;;;6.70;55.40;;;;;;5112833;28;19957;-68
2021/12/28 03:24:09;;;;;;;;;;;6.70;55.30;;;;;;5095696;28;19943;-68
2021/12/28 03:26:35;;;;;;;;;;;6.70;55.30;;;;;;5104589;28;20003;-68
2021/12/28 03:29:01;;;;;;;;;;;6.70;55.20;;;;;;5112708;28;19915;-68
2021/12/28 03:31:26;;;;;;;;;;;6.70;55.20;;;;;;5108659;28;19915;-68
2021/12/28 03:33:54;;;;;;;;;;;6.70;55.10;;;;;;5112623;28;19916;-68
2021/12/28 03:36:20;;;;;;;;;;;6.70;55.10;;;;;;5102306;28;19919;-68
2021/12/28 03:38:47;;;;;;;;;;;6.70;55.10;;;;;;5092282;28;20021;-68
2021/12/28 03:41:13;;;;;;;;;;;6.70;55.10;;;;;;5092236;28;19935;-68
2021/12/28 03:43:41;;;;;;;;;;;6.70;55.10;;;;;;5092218;28;19915;-68
2021/12/28 03:46:07;;;;;;;;;;;6.70;55.10;;;;;;5092395;28;19966;-68
2021/12/28 03:48:33;;;;;;;;;;;6.70;55.10;;;;;;5092256;28;19969;-68
2021/12/28 03:51:00;;;;;;;;;;;6.70;55.10;;;;;;5101156;28;19915;-68
2021/12/28 03:53:26;;;;;;;;;;;6.70;55.10;;;;;;5104728;28;19912;-68
2021/12/28 03:55:51;;;;;;;;;;;6.70;55.00;;;;;;5091119;28;19909;-68
2021/12/28 03:58:17;;;;;;;;;;;6.70;55.00;;;;;;5092353;28;19915;-68
2021/12/28 04:00:44;;;;;;;;;;;6.70;54.90;;;;;;5098064;28;20216;-68
2021/12/28 04:03:11;;;;;;;;;;;6.60;54.90;;;;;;5112401;28;19904;-68
2021/12/28 04:05:37;;;;;;;;;;;6.70;54.90;;;;;;5112296;28;19912;-67
2021/12/28 04:08:03;;;;;;;;;;;6.60;54.90;;;;;;5112115;28;19904;-68
2021/12/28 04:10:31;;;;;;;;;;;6.60;54.90;;;;;;5112273;28;19919;-68
2021/12/28 04:12:57;;;;;;;;;;;6.60;55.00;;;;;;5114399;28;20012;-68
2021/12/28 04:15:23;;;;;;;;;;;6.60;54.90;;;;;;5110258;28;19919;-68
2021/12/28 04:17:49;;;;;;;;;;;6.60;54.90;;;;;;5095611;28;19912;-68
2021/12/28 04:20:16;;;;;;;;;;;6.60;54.90;;;;;;5096471;28;19908;-68
2021/12/28 04:22:43;;;;;;;;;;;6.60;55.00;;;;;;5096599;28;19908;-68
2021/12/28 04:25:09;;;;;;;;;;;6.60;55.00;;;;;;5096603;28;19918;-68
2021/12/28 04:27:34;;;;;;;;;;;6.60;55.00;;;;;;5096568;28;19908;-68
2021/12/28 04:30:00;;;;;;;;;;;6.60;55.00;;;;;;5098909;28;19919;-68
2021/12/28 04:32:26;;;;;;;;;;;6.60;55.10;;;;;;5096422;28;20341;-67
2021/12/28 04:34:52;;;;;;;;;;;6.60;55.00;;;;;;5096333;28;20241;-68
2021/12/28 04:37:17;;;;;;;;;;;6.60;55.00;;;;;;5096330;28;19908;-68
2021/12/28 04:39:43;;;;;;;;;;;6.60;55.10;;;;;;5097740;28;19942;-68
2021/12/28 04:42:08;;;;;;;;;;;6.60;55.20;;;;;;5116533;28;20002;-69
2021/12/28 04:44:34;;;;;;;;;;;6.60;55.20;;;;;;5116590;28;19915;-68
2021/12/28 04:47:00;;;;;;;;;;;6.60;55.20;;;;;;5116513;28;19911;-68
2021/12/28 04:49:27;;;;;;;;;;;6.60;55.20;;;;;;5116548;28;19999;-68
2021/12/28 04:51:53;;;;;;;;;;;6.60;55.20;;;;;;5116488;28;19947;-68
2021/12/28 04:54:19;;;;;;;;;;;6.60;55.30;;;;;;5115632;28;20349;-68
2021/12/28 04:56:46;;;;;;;;;;;6.60;55.20;;;;;;5095978;28;19961;-68
2021/12/28 04:59:12;;;;;;;;;;;6.60;55.20;;;;;;5095898;28;19908;-68
2021/12/28 05:01:38;;;;;;;;;;;6.60;55.20;;;;;;5095871;28;20277;-68
2021/12/28 05:04:04;;;;;;;;;;;6.60;55.20;;;;;;5095799;28;19904;-68
2021/12/28 05:06:30;;;;;;;;;;;6.60;55.20;;;;;;5114018;28;19912;-68
2021/12/28 05:08:56;;;;;;;;;;;6.50;55.30;;;;;;5116068;28;19926;-68
2021/12/28 05:11:22;;;;;;;;;;;6.50;55.30;;;;;;5116061;28;19942;-68
2021/12/28 05:13:48;;;;;;;;;;;6.50;55.40;;;;;;5114618;28;19918;-68
2021/12/28 05:16:15;;;;;;;;;;;6.50;55.40;;;;;;5115723;28;19912;-68
2021/12/28 05:18:41;;;;;;;;;;;6.50;55.40;;;;;;5115914;28;19908;-68
2021/12/28 05:21:07;;;;;;;;;;;6.50;55.50;;;;;;5098122;28;19908;-68
2021/12/28 05:23:32;;;;;;;;;;;6.40;55.50;;;;;;5095316;28;19908;-68
2021/12/28 05:25:58;;;;;;;;;;;6.50;55.50;;;;;;5095370;28;20342;-68
2021/12/28 05:28:25;;;;;;;;;;;6.50;55.60;;;;;;5100643;28;19914;-68
2021/12/28 05:30:51;;;;;;;;;;;6.50;55.60;;;;;;5100551;28;20014;-68
2021/12/28 05:33:16;;;;;;;;;;;6.50;55.60;;;;;;5095069;28;19969;-68
2021/12/28 05:35:42;;;;;;;;;;;6.50;55.60;;;;;;5093929;28;19908;-67
2021/12/28 05:38:08;;;;;;;;;;;6.50;55.50;;;;;;5095190;28;20645;-68
2021/12/28 05:40:33;;;;;;;;;;;6.50;55.50;;;;;;5095056;28;19927;-68
2021/12/28 05:42:59;;;;;;;;;;;6.40;55.40;;;;;;5095078;28;19983;-67
2021/12/28 05:45:25;;;;;;;;;;;6.40;55.40;;;;;;5107824;28;19912;-68
2021/12/28 05:47:50;;;;;;;;;;;6.30;55.40;;;;;;5115360;28;19919;-68
2021/12/28 05:50:16;;;;;;;;;;;6.30;55.50;;;;;;5115359;28;19911;-68
2021/12/28 05:52:41;;;;;;;;;;;6.20;55.50;;;;;;5115275;28;19996;-68
2021/12/28 05:55:07;;;;;;;;;;;6.20;55.50;;;;;;5104450;28;20037;-68
2021/12/28 05:57:33;;;;;;;;;;;6.20;55.60;;;;;;5094810;28;19908;-68
2021/12/28 05:59:59;;;;;;;;;;;6.10;55.60;;;;;;5094655;28;19908;-68
2021/12/28 06:02:25;;;;;;;;;;;6.10;55.70;;;;;;5094898;28;19962;-68
2021/12/28 06:04:51;;;;;;;;;;;6.10;55.80;;;;;;5094617;28;19912;-68
2021/12/28 06:07:16;;;;;;;;;;;6.00;55.80;;;;;;5094543;28;19934;-68
2021/12/28 06:09:42;;;;;;;;;;;6.00;55.90;;;;;;5095607;28;19919;-68
2021/12/28 06:12:08;;;;;;;;;;;6.00;56.00;;;;;;5094437;28;19962;-68
2021/12/28 06:14:34;;;;;;;;;;;6.00;56.10;;;;;;5094267;28;19915;-68
2021/12/28 06:16:59;;;;;;;;;;;6.00;56.10;;;;;;5094098;28;19948;-68
2021/12/28 06:19:25;;;;;;;;;;;6.00;56.20;;;;;;5095330;28;20332;-67
2021/12/28 06:21:51;;;;;;;;;;;6.00;56.20;;;;;;5094231;28;19908;-67
2021/12/28 06:24:16;;;;;;;;;;;6.10;56.40;;;;;;5095302;28;20283;-68
2021/12/28 06:26:42;;;;;;;;;;;6.10;56.40;;;;;;5097044;28;19907;-67
2021/12/28 06:29:08;;;;;;;;;;;6.10;56.40;;;;;;5114509;28;19952;-68
2021/12/28 06:31:34;;;;;;;;;;;6.20;56.50;;;;;;5114523;28;19953;-68
2021/12/28 06:34:00;;;;;;;;;;;6.20;56.50;;;;;;5114078;28;19916;-68
2021/12/28 06:36:27;;;;;;;;;;;6.30;56.50;;;;;;5096240;28;19962;-67
2021/12/28 06:38:53;;;;;;;;;;;6.30;56.50;;;;;;5092564;28;19908;-67
2021/12/28 06:41:19;;;;;;;;;;;6.30;56.40;;;;;;5093743;28;19915;-68
2021/12/28 06:43:44;;;;;;;;;;;6.30;56.30;;;;;;5093681;28;19908;-67
2021/12/28 06:46:10;;;;;;;;;;;6.40;56.30;;;;;;5093757;28;20382;-67
2021/12/28 06:48:36;;;;;;;;;;;6.40;56.20;;;;;;5093656;28;19908;-68
2021/12/28 06:51:03;;;;;;;;;;;6.40;56.30;;;;;;5094811;28;19958;-68
2021/12/28 06:53:28;;;;;;;;;;;6.40;56.30;;;;;;5092319;28;19958;-67
2021/12/28 06:55:54;;;;;;;;;;;6.40;56.30;;;;;;5093628;28;20296;-68
2021/12/28 06:58:19;;;;;;;;;;;6.40;56.30;;;;;;5093529;28;19999;-67
2021/12/28 07:00:45;;;;;;;;;;;6.40;56.30;;;;;;5099184;28;19911;-67
2021/12/28 07:03:11;;;;;;;;;;;6.50;56.40;;;;;;5113990;28;19940;-67
2021/12/28 07:05:36;;;;;;;;;;;6.50;56.40;;;;;;5112594;28;19911;-67
2021/12/28 07:08:02;;;;;;;;;;;6.50;56.40;;;;;;5113824;28;19908;-67
2021/12/28 07:10:28;;;;;;;;;;;6.60;56.40;;;;;;5109927;28;19912;-67
2021/12/28 07:12:53;;;;;;;;;;;6.60;56.40;;;;;;5093288;28;19915;-67
2021/12/28 07:15:20;;;;;;;;;;;6.70;56.40;;;;;;5093207;28;19912;-68
2021/12/28 07:17:46;;;;;;;;;;;6.70;56.40;;;;;;5093174;28;19962;-67
2021/12/28 07:20:12;;;;;;;;;;;6.70;56.30;;;;;;5093933;28;19951;-68
2021/12/28 07:22:37;;;;;;;;;;;6.70;56.40;;;;;;5113459;28;20329;-67
2021/12/28 07:25:03;;;;;;;;;;;6.80;56.30;;;;;;5113322;28;19958;-67
2021/12/28 07:27:30;;;;;;;;;;;6.80;56.20;;;;;;5113357;27;19907;-67
2021/12/28 07:29:56;;;;;;;;;;;6.80;56.20;;;;;;5113374;28;19908;-67
2021/12/28 07:32:21;;;;;;;;;;;6.80;56.20;;;;;;5094150;28;19909;-68
2021/12/28 07:34:47;;;;;;;;;;;6.90;56.30;;;;;;5092859;28;20361;-67
2021/12/28 07:37:12;;;;;;;;;;;6.90;56.30;;;;;;5092832;28;19919;-67
2021/12/28 07:39:38;;;;;;;;;;;6.90;56.20;;;;;;5092792;28;19978;-67
2021/12/28 07:42:04;;;;;;;;;;;7.00;56.20;;;;;;5108805;28;19915;-67
2021/12/28 07:44:29;;;;;;;;;;;7.00;56.10;;;;;;5113153;28;20300;-68
2021/12/28 07:46:55;;;;;;;;;;;7.00;56.10;;;;;;5112209;28;19908;-67
2021/12/28 07:49:21;;;;;;;;;;;7.00;56.20;;;;;;5113066;28;20357;-68
2021/12/28 07:51:46;;;;;;;;;;;7.10;56.30;;;;;;5099109;28;20417;-68
2021/12/28 07:54:12;;;;;;;;;;;7.10;56.30;;;;;;5092408;28;19920;-68
2021/12/28 07:56:38;;;;;;;;;;;7.20;56.30;;;;;;5092719;28;20289;-67
2021/12/28 07:59:04;;;;;;;;;;;7.30;56.20;;;;;;5092752;28;19948;-67
2021/12/28 08:01:33;;;;;;;;;;;7.30;56.10;;;;;;5103279;28;19915;-68
2021/12/28 08:03:59;;;;;;;;;;;7.40;56.10;;;;;;5112880;28;19912;-67
2021/12/28 08:06:24;;;;;;;;;;;7.40;55.90;;;;;;5112820;28;19911;-68
2021/12/28 08:08:50;;;;;;;;;;;7.50;55.90;;;;;;5112872;28;20049;-67
2021/12/28 08:11:16;;;;;;;;;;;7.50;55.90;;;;;;5100989;28;20061;-68
2021/12/28 08:13:41;;;;;;;;;;;7.50;55.90;;;;;;5092344;28;19916;-68
2021/12/28 08:16:07;;;;;;;;;;;7.50;55.80;;;;;;5092066;28;19916;-68
2021/12/28 08:18:33;;;;;;;;;;;7.60;55.90;;;;;;5092461;28;19916;-68
2021/12/28 08:20:58;;;;;;;;;;;7.60;55.80;;;;;;5100899;28;19920;-67
2021/12/28 08:23:24;;;;;;;;;;;7.60;55.70;;;;;;5112652;28;19961;-67
2021/12/28 08:25:50;;;;;;;;;;;7.70;55.70;;;;;;5112448;28;20381;-68
2021/12/28 08:28:16;;;;;;;;;;;7.70;55.60;;;;;;5098416;28;19909;-68
2021/12/28 08:30:42;;;;;;;;;;;7.70;55.50;;;;;;5097678;28;19918;-68
2021/12/28 08:33:08;;;;;;;;;;;7.70;55.50;;;;;;5110852;28;20275;-68
2021/12/28 08:35:34;;;;;;;;;;;7.70;55.40;;;;;;5111724;28;20430;-69
2021/12/28 08:38:00;;;;;;;;;;;7.70;55.50;;;;;;5110600;28;19907;-68
2021/12/28 08:40:26;;;;;;;;;;;7.80;55.60;;;;;;5109499;28;20031;-68
2021/12/28 08:42:51;;;;;;;;;;;7.90;55.70;;;;;;5092351;28;19962;-68
2021/12/28 08:45:17;;;;;;;;;;;7.90;55.70;;;;;;5092275;28;19908;-67
2021/12/28 08:47:44;;;;;;;;;;;8.00;55.80;;;;;;5103037;28;19908;-67
2021/12/28 08:50:10;;;;;;;;;;;8.10;55.70;;;;;;5112761;28;19918;-69
2021/12/28 08:52:36;;;;;;;;;;;8.10;55.40;;;;;;5107486;28;19908;-69
2021/12/28 08:55:02;;;;;;;;;;;8.20;55.30;;;;;;5098031;28;19920;-68
2021/12/28 08:57:27;;;;;;;;;;;8.20;55.20;;;;;;5112697;28;19981;-69
2021/12/28 08:59:53;;;;;;;;;;;8.30;55.00;;;;;;5116103;28;20384;-68
2021/12/28 09:02:19;;;;;;;;;;;8.40;55.00;;;;;;5116312;28;20286;-69
2021/12/28 09:04:46;;;;;;;;;;;8.40;54.80;;;;;;5115156;28;20276;-69
2021/12/28 09:07:14;;;;;;;;;;;8.50;55.30;;;;;;5116186;28;20373;-69
2021/12/28 09:09:40;;;;;;;;;;;8.50;54.50;;;;;;5115858;28;19953;-69
2021/12/28 09:12:06;;;;;;;;;;;8.50;54.40;;;;;;5115621;28;20327;-69
2021/12/28 09:14:34;;;;;;;;;;;8.60;54.50;;;;;;5105434;28;19916;-68
2021/12/28 09:17:00;;;;;;;;;;;8.60;54.50;;;;;;5095624;28;19916;-68
2021/12/28 09:19:26;;;;;;;;;;;8.70;54.50;;;;;;5112185;28;20395;-69
2021/12/28 09:21:51;;;;;;;;;;;8.70;54.40;;;;;;5098520;28;19912;-69
2021/12/28 09:24:17;;;;;;;;;;;8.80;54.30;;;;;;5097695;28;20273;-68
2021/12/28 09:26:43;;;;;;;;;;;8.80;54.10;;;;;;5102709;28;20369;-68
2021/12/28 09:29:09;;;;;;;;;;;8.80;53.90;;;;;;5116156;28;20269;-69
2021/12/28 09:31:34;;;;;;;;;;;8.90;53.70;;;;;;5116129;28;19907;-68
2021/12/28 09:34:00;;;;;;;;;;;8.90;53.80;;;;;;5115980;28;20293;-69
2021/12/28 09:36:26;;;;;;;;;;;8.90;53.80;;;;;;5116033;28;20021;-69
2021/12/28 09:38:52;;;;;;;;;;;8.90;53.60;;;;;;5114588;28;20292;-69
2021/12/28 09:41:17;;;;;;;;;;;8.90;53.50;;;;;;5115736;28;19907;-68
2021/12/28 09:43:43;;;;;;;;;;;8.90;53.40;;;;;;5115559;28;20361;-68
2021/12/28 09:46:09;;;;;;;;;;;8.80;53.30;;;;;;5115786;28;19957;-68
2021/12/28 09:48:35;;;;;;;;;;;8.80;53.30;;;;;;5101110;28;19912;-68
2021/12/28 09:51:02;;;;;;;;;;;8.80;53.40;;;;;;5115672;28;19912;-68
2021/12/28 09:53:27;;;;;;;;;;;8.80;53.40;;;;;;5115332;28;20313;-68
2021/12/28 09:55:53;;;;;;;;;;;8.80;53.50;;;;;;5114969;27;19911;-68
2021/12/28 09:58:19;;;;;;;;;;;8.80;53.50;;;;;;5104453;28;19919;-67
2021/12/28 10:00:44;;;;;;;;;;;8.80;53.50;;;;;;5114484;28;20002;-68
2021/12/28 10:03:10;;;;;;;;;;;8.80;53.60;;;;;;5101263;28;19958;-68
2021/12/28 10:05:36;;;;;;;;;;;8.80;53.70;;;;;;5095144;28;20007;-68
2021/12/28 10:08:03;;;;;;;;;;;8.90;53.70;;;;;;5094062;28;19908;-68
2021/12/28 10:10:36;;;;;;;;;;;8.90;53.70;;;;;;5093027;28;19916;-68
2021/12/28 10:13:06;;;;;;;;;;;8.90;53.80;;;;;;5104546;28;19949;-68
2021/12/28 10:15:33;;;;;;;;;;;9.00;53.90;;;;;;5114083;28;20303;-68
2021/12/28 10:18:00;;;;;;;;;;;9.00;54.00;;;;;;5114479;28;19912;-68
2021/12/28 10:20:31;;;;;;;;;;;9.00;53.90;;;;;;5114104;28;19908;-67
2021/12/28 10:22:58;;;;;;;;;;;9.00;53.80;;;;;;5104104;28;19935;-68
2021/12/28 10:25:26;;;;;;;;;;;9.00;53.80;;;;;;5093812;28;19960;-68
2021/12/28 10:27:53;;;;;;;;;;;9.00;53.90;;;;;;5093751;28;19983;-68
2021/12/28 10:30:21;;;;;;;;;;;9.00;53.90;;;;;;5111797;28;19919;-68
2021/12/28 10:32:49;;;;;;;;;;;9.10;53.90;;;;;;5114102;28;20003;-68
2021/12/28 10:35:17;;;;;;;;;;;9.00;53.70;;;;;;5112696;28;20082;-68
2021/12/28 10:37:47;;;;;;;;;;;9.00;53.60;;;;;;5114003;28;20385;-68
2021/12/28 10:40:14;;;;;;;;;;;9.00;53.70;;;;;;5095673;28;19916;-68
2021/12/28 10:42:41;;;;;;;;;;;9.10;53.80;;;;;;5093448;28;19908;-68
2021/12/28 10:45:08;;;;;;;;;;;9.10;53.80;;;;;;5093270;28;19919;-68
2021/12/28 10:47:34;;;;;;;;;;;9.20;53.70;;;;;;5093423;28;19915;-68
2021/12/28 10:50:07;;;;;;;;;;;9.20;53.50;;;;;;5107421;28;19912;-68
2021/12/28 10:52:38;;;;;;;;;;;9.20;53.50;;;;;;5113600;28;19912;-68
2021/12/28 10:55:22;;;;;;;;;;;9.20;53.50;;;;;;5113353;28;19912;-68
2021/12/28 10:57:48;;;;;;;;;;;9.20;53.50;;;;;;5111119;28;20320;-68
2021/12/28 11:00:25;;;;;;;;;;;9.20;53.40;;;;;;5103332;28;19908;-69
2021/12/28 11:03:10;;;;;;;;;;;9.10;53.20;;;;;;5092967;28;19912;-68
2021/12/28 11:05:35;;;;;;;;;;;9.10;53.10;;;;;;5093009;28;19927;-68
2021/12/28 11:08:01;;;;;;;;;;;9.00;53.50;;;;;;5092997;28;19909;-68
2021/12/28 11:10:27;;;;;;;;;;;8.90;52.80;;;;;;5102978;28;19908;-68
2021/12/28 11:12:54;;;;;;;;;;;8.80;52.80;;;;;;5112231;28;19922;-68
2021/12/28 11:15:24;;;;;;;;;;;8.70;52.80;;;;;;5113029;28;20014;-69
2021/12/28 11:17:50;;;;;;;;;;;8.60;53.00;;;;;;5113188;28;19915;-69
2021/12/28 11:20:16;;;;;;;;;;;8.60;53.20;;;;;;5112899;28;19908;-69
2021/12/28 11:23:01;;;;;;;;;;;8.60;53.40;;;;;;5109808;28;20002;-68
2021/12/28 11:25:28;;;;;;;;;;;8.60;53.50;;;;;;5111689;28;20038;-69
2021/12/28 11:28:10;;;;;;;;;;;8.50;53.40;;;;;;5113028;28;19912;-68
2021/12/28 11:30:36;;;;;;;;;;;8.50;53.40;;;;;;5112860;28;19908;-69
2021/12/28 11:33:05;;;;;;;;;;;8.50;53.40;;;;;;5113005;28;19912;-68
2021/12/28 11:35:31;;;;;;;;;;;8.40;53.40;;;;;;5111065;28;19934;-68
2021/12/28 11:37:56;;;;;;;;;;;8.40;53.50;;;;;;5112608;28;20006;-68
2021/12/28 11:40:22;;;;;;;;;;;8.40;53.50;;;;;;5112799;28;20678;-69
2021/12/28 11:42:48;;;;;;;;;;;8.40;53.60;;;;;;5114161;28;20391;-68
2021/12/28 11:45:13;;;;;;;;;;;8.30;53.70;;;;;;5114360;28;19907;-69
2021/12/28 11:47:39;;;;;;;;;;;8.40;53.80;;;;;;5104481;28;19957;-69
2021/12/28 11:50:08;;;;;;;;;;;8.40;53.80;;;;;;5092613;28;19972;-67
2021/12/28 11:52:33;;;;;;;;;;;8.40;53.80;;;;;;5092311;28;19915;-67
2021/12/28 11:55:00;;;;;;;;;;;8.40;53.80;;;;;;5092278;28;19912;-68
2021/12/28 11:57:27;;;;;;;;;;;8.40;54.00;;;;;;5092296;28;20361;-67
2021/12/28 11:59:54;;;;;;;;;;;8.50;53.80;;;;;;5095890;28;19915;-67
2021/12/28 12:02:20;;;;;;;;;;;8.40;53.60;;;;;;5112587;28;19954;-68
2021/12/28 12:04:50;;;;;;;;;;;8.40;53.50;;;;;;5112723;28;20388;-68
2021/12/28 12:07:16;;;;;;;;;;;8.40;53.60;;;;;;5112922;28;19908;-67
2021/12/28 12:09:54;;;;;;;;;;;8.40;53.60;;;;;;5112634;28;19911;-68
2021/12/28 12:12:43;;;;;;;;;;;8.40;53.50;;;;;;5109916;28;20345;-67
2021/12/28 12:15:10;;;;;;;;;;;8.40;53.40;;;;;;5112116;28;19915;-68
2021/12/28 12:17:39;;;;;;;;;;;8.40;53.40;;;;;;5112386;28;19919;-67
2021/12/28 12:20:08;;;;;;;;;;;8.40;53.50;;;;;;5110859;28;19912;-67
2021/12/28 12:22:35;;;;;;;;;;;8.40;53.60;;;;;;5100640;28;20426;-67
2021/12/28 12:25:02;;;;;;;;;;;8.50;54.30;;;;;;5093314;28;19954;-67
2021/12/28 12:27:45;;;;;;;;;;;8.60;53.90;;;;;;5092446;28;19995;-68
2021/12/28 12:30:16;;;;;;;;;;;8.60;53.80;;;;;;5092836;28;19916;-68
2021/12/28 12:33:01;;;;;;;;;;;8.70;53.70;;;;;;5104551;28;19912;-68
2021/12/28 12:35:28;;;;;;;;;;;8.80;53.50;;;;;;5115434;28;20215;-68
2021/12/28 12:37:54;;;;;;;;;;;8.80;53.40;;;;;;5108073;28;20379;-68
2021/12/28 12:40:20;;;;;;;;;;;8.80;53.30;;;;;;5096658;28;19908;-68
2021/12/28 12:43:04;;;;;;;;;;;8.80;53.30;;;;;;5095682;28;19912;-68
2021/12/28 12:45:48;;;;;;;;;;;8.90;53.30;;;;;;5105359;28;19960;-68
2021/12/28 12:48:29;;;;;;;;;;;8.90;53.20;;;;;;5095936;28;19915;-68
2021/12/28 12:50:54;;;;;;;;;;;8.90;53.20;;;;;;5095937;28;19947;-68
2021/12/28 12:53:40;;;;;;;;;;;8.90;53.00;;;;;;5096479;28;19993;-67
2021/12/28 12:56:16;;;;;;;;;;;8.90;53.10;;;;;;5095871;28;20372;-67
2021/12/28 12:58:45;;;;;;;;;;;8.90;53.00;;;;;;5096245;28;20452;-67
2021/12/28 13:01:27;;;;;;;;;;;8.90;52.90;;;;;;5096226;28;20459;-67
2021/12/28 13:03:57;;;;;;;;;;;8.90;52.80;;;;;;5096088;28;20341;-67
2021/12/28 13:06:40;;;;;;;;;;;8.90;52.90;;;;;;5096096;28;19908;-69
2021/12/28 13:09:14;;;;;;;;;;;8.90;53.00;;;;;;5096070;28;20015;-68
2021/12/28 13:11:41;;;;;;;;;;;8.90;53.00;;;;;;5095853;28;19909;-68
2021/12/28 13:14:07;;;;;;;;;;;8.90;53.00;;;;;;5095849;28;19919;-68
2021/12/28 13:16:33;;;;;;;;;;;8.90;53.00;;;;;;5095681;28;19916;-69
2021/12/28 13:19:09;;;;;;;;;;;8.90;53.00;;;;;;5116330;28;19935;-68
2021/12/28 13:21:34;;;;;;;;;;;9.00;53.10;;;;;;5116100;28;19908;-68
2021/12/28 13:24:11;;;;;;;;;;;9.00;53.10;;;;;;5116072;28;20365;-67
2021/12/28 13:26:46;;;;;;;;;;;9.00;53.00;;;;;;5116122;27;19907;-67
2021/12/28 13:29:21;;;;;;;;;;;9.00;52.90;;;;;;5116166;28;19954;-66
2021/12/28 13:31:47;;;;;;;;;;;9.00;52.90;;;;;;5116101;28;19908;-66
2021/12/28 13:34:12;;;;;;;;;;;8.90;52.80;;;;;;5115870;28;19922;-69
2021/12/28 13:36:47;;;;;;;;;;;8.90;52.80;;;;;;5115918;28;20388;-66
2021/12/28 13:39:13;;;;;;;;;;;8.90;52.80;;;;;;5115863;28;20277;-66
2021/12/28 13:41:47;;;;;;;;;;;8.90;52.80;;;;;;5115868;28;19908;-67
2021/12/28 13:44:12;;;;;;;;;;;8.90;52.90;;;;;;5115430;28;19911;-68
2021/12/28 13:46:38;;;;;;;;;;;8.90;53.00;;;;;;5114969;28;19907;-67
2021/12/28 13:49:03;;;;;;;;;;;8.90;53.10;;;;;;5114314;28;19908;-68
2021/12/28 13:51:30;;;;;;;;;;;8.90;53.20;;;;;;5115850;28;19957;-67
2021/12/28 13:53:57;;;;;;;;;;;8.90;53.30;;;;;;5115648;28;19919;-67
2021/12/28 13:56:30;;;;;;;;;;;8.90;53.30;;;;;;5115765;28;19959;-67
2021/12/28 13:58:56;;;;;;;;;;;8.80;53.20;;;;;;5115716;28;19904;-67
2021/12/28 14:01:26;;;;;;;;;;;8.80;53.30;;;;;;5115716;28;19915;-68
2021/12/28 14:04:00;;;;;;;;;;;8.80;53.40;;;;;;5115387;28;19960;-67
2021/12/28 14:06:26;;;;;;;;;;;8.70;53.40;;;;;;5115099;28;19912;-67
2021/12/28 14:08:52;;;;;;;;;;;8.70;53.60;;;;;;5115240;28;20003;-68
2021/12/28 14:11:30;;;;;;;;;;;8.70;53.60;;;;;;5115128;28;20341;-67
2021/12/28 14:13:56;;;;;;;;;;;8.70;53.60;;;;;;5115397;28;19944;-67
2021/12/28 14:16:21;;;;;;;;;;;8.70;53.70;;;;;;5115038;28;20321;-66
2021/12/28 14:18:51;;;;;;;;;;;8.70;53.80;;;;;;5115321;27;19908;-67
2021/12/28 14:21:19;;;;;;;;;;;8.70;53.90;;;;;;5115565;28;19915;-67
2021/12/28 14:23:52;;;;;;;;;;;8.70;53.90;;;;;;5114969;28;19908;-67
2021/12/28 14:26:20;;;;;;;;;;;8.70;53.90;;;;;;5114982;28;20461;-67
2021/12/28 14:28:59;;;;;;;;;;;8.70;53.90;;;;;;5114878;28;19994;-68
2021/12/28 14:31:50;;;;;;;;;;;8.70;53.90;;;;;;5113648;28;20541;-67
2021/12/28 14:34:34;;;;;;;;;;;8.70;53.90;;;;;;5107416;28;19923;-67